createdAt,value
2022-11-20T05:03:58.151Z,98244.56
2022-11-20T05:08:09.652Z,98253.00
2022-11-20T05:12:21.200Z,98242.91
2022-11-20T05:16:36.277Z,98239.56
2022-11-20T05:20:47.752Z,98238.09
2022-11-20T05:24:59.249Z,98245.06
2022-11-20T05:29:12.846Z,98236.47
2022-11-20T05:33:24.372Z,98238.56
2022-11-20T05:37:35.887Z,98246.00
2022-11-20T05:41:47.430Z,98239.06
2022-11-20T05:45:58.926Z,98240.81
2022-11-20T05:50:10.587Z,98244.56
2022-11-20T05:54:22.105Z,98251.19
2022-11-20T05:58:34.492Z,98243.41
2022-11-20T06:02:46.403Z,98247.81
2022-11-20T06:06:57.993Z,98249.13
2022-11-20T06:11:11.405Z,98250.75
2022-11-20T06:15:22.945Z,98244.56
2022-11-20T06:19:34.459Z,98249.13
2022-11-20T06:23:46.964Z,98254.97
2022-11-20T06:27:58.514Z,98249.75
2022-11-20T06:32:10.112Z,98256.28
2022-11-20T06:36:23.620Z,98259.69
2022-11-20T06:40:35.143Z,98258.88
2022-11-20T06:44:46.779Z,98259.22
2022-11-20T06:48:59.299Z,98267.00
2022-11-20T06:53:10.791Z,98268.28
2022-11-20T06:57:22.341Z,98272.81
2022-11-20T07:01:34.240Z,98271.22
2022-11-20T07:05:46.849Z,98274.28
2022-11-20T07:09:58.321Z,98272.19
2022-11-20T07:14:09.819Z,98285.84
2022-11-20T07:18:21.430Z,98283.56
2022-11-20T07:22:32.912Z,98279.66
2022-11-20T07:26:47.377Z,98293.00
2022-11-20T07:30:58.906Z,98296.59
2022-11-20T07:35:10.416Z,98296.91
2022-11-20T07:39:22.246Z,98308.94
2022-11-20T07:43:38.381Z,98320.59
2022-11-20T07:47:52.460Z,98316.09
2022-11-20T07:52:05.297Z,98318.72
2022-11-20T07:56:17.075Z,98315.94
2022-11-20T08:00:28.796Z,98320.97
2022-11-20T08:04:40.324Z,98320.97
2022-11-20T08:08:52.230Z,98322.94
2022-11-20T08:13:22.373Z,98326.00
2022-11-20T08:17:34.074Z,98337.38
2022-11-20T08:21:45.820Z,98339.16
2022-11-20T08:25:57.340Z,98342.41
2022-11-20T08:30:09.502Z,98345.31
2022-11-20T08:34:20.989Z,98351.50
2022-11-20T08:38:32.657Z,98356.38
2022-11-20T08:42:51.053Z,98360.44
2022-11-20T08:47:02.578Z,98363.84
2022-11-20T08:51:14.417Z,98366.41
2022-11-20T08:55:25.888Z,98368.38
2022-11-20T09:00:04.576Z,98375.91
2022-11-20T09:04:08.953Z,98367.13
2022-11-20T09:08:20.468Z,98363.09
2022-11-20T09:12:31.947Z,98370.91
2022-11-20T09:16:45.365Z,98370.44
2022-11-20T09:20:58.849Z,98377.13
2022-11-20T09:25:10.581Z,98380.34
2022-11-20T09:29:22.292Z,98380.53
2022-11-20T09:33:34.111Z,98385.41
2022-11-20T09:37:46.137Z,98387.69
2022-11-20T09:42:23.117Z,98388.69
2022-11-20T09:46:54.256Z,98394.22
2022-11-20T09:51:23.189Z,98399.91
2022-11-20T09:55:36.624Z,98382.69
2022-11-20T09:59:53.729Z,98379.25
2022-11-20T10:04:16.653Z,98380.22
2022-11-20T10:08:45.959Z,98373.97
2022-11-20T10:13:26.354Z,98381.78
2022-11-20T10:17:37.793Z,98372.56
2022-11-20T10:22:14.077Z,98372.25
2022-11-20T10:26:41.077Z,98361.97
2022-11-20T10:31:03.894Z,98361.78
2022-11-20T10:35:19.258Z,98346.03
2022-11-20T10:40:12.646Z,98348.31
2022-11-20T10:44:52.307Z,98338.22
2022-11-20T10:49:13.965Z,98352.84
2022-11-20T10:53:46.450Z,98339.03
2022-11-20T10:58:17.579Z,98336.94
2022-11-20T11:02:34.401Z,98334.34
2022-11-20T11:06:49.136Z,98323.59
2022-11-20T11:11:08.129Z,98312.63
2022-11-20T11:15:33.011Z,98304.88
2022-11-20T11:19:44.546Z,98307.75
2022-11-20T11:24:26.834Z,98310.16
2022-11-20T11:28:36.605Z,98305.88
2022-11-20T11:32:48.595Z,98287.31
2022-11-20T11:37:02.645Z,98279.00
2022-11-20T11:41:20.120Z,98285.41
2022-11-20T11:45:31.846Z,98287.69
2022-11-20T11:49:43.357Z,98283.31
2022-11-20T11:53:55.041Z,98281.19
2022-11-20T11:58:35.892Z,98277.94
2022-11-20T12:02:49.140Z,98279.38
2022-11-20T12:07:46.468Z,98281.31
2022-11-20T12:12:28.374Z,98261.72
2022-11-20T12:16:40.381Z,98263.13
2022-11-20T12:21:12.277Z,98261.38
2022-11-20T12:25:30.957Z,98250.25
2022-11-20T12:30:14.783Z,98265.44
2022-11-20T12:34:46.619Z,98257.03
2022-11-20T12:39:16.429Z,98244.81
2022-11-20T12:43:50.628Z,98247.91
2022-11-20T12:48:21.015Z,98236.53
2022-11-20T12:52:54.009Z,98233.69
2022-11-20T12:57:29.177Z,98223.69
2022-11-20T13:01:56.012Z,98216.19
2022-11-20T13:06:13.187Z,98213.16
2022-11-20T13:10:36.934Z,98203.75
2022-11-20T13:14:58.961Z,98200.91
2022-11-20T13:19:13.394Z,98199.31
2022-11-20T13:23:27.470Z,98185.03
2022-11-20T13:27:48.157Z,98177.56
2022-11-20T13:32:08.308Z,98157.41
2022-11-20T13:36:29.282Z,98167.16
2022-11-20T13:41:21.941Z,98150.06
2022-11-20T13:45:33.607Z,98156.53
2022-11-20T13:49:45.930Z,98140.19
2022-11-20T13:54:53.333Z,98137.38
2022-11-20T13:59:29.528Z,98135.94
2022-11-20T14:04:05.044Z,98130.38
2022-11-20T14:08:26.250Z,98127.16
2022-11-20T14:12:37.840Z,98126.34
2022-11-20T14:16:50.709Z,98122.63
2022-11-20T14:21:03.461Z,98128.13
2022-11-20T14:25:15.168Z,98118.91
2022-11-20T14:29:39.925Z,98114.72
2022-11-20T14:33:53.976Z,98116.81
2022-11-20T14:38:12.866Z,98112.94
2022-11-20T14:42:29.680Z,98111.66
2022-11-20T14:46:41.467Z,98115.72
2022-11-20T14:50:53.009Z,98111.03
2022-11-20T14:55:05.016Z,98107.81
2022-11-20T14:59:25.312Z,98101.47
2022-11-20T15:03:41.693Z,98101.94
2022-11-20T15:08:13.712Z,98085.88
2022-11-20T15:12:25.456Z,98080.66
2022-11-20T15:16:37.219Z,98075.28
2022-11-20T15:20:49.640Z,98082.81
2022-11-20T15:25:01.163Z,98078.63
2022-11-20T15:29:15.184Z,98072.13
2022-11-20T15:33:26.931Z,98070.53
2022-11-20T15:37:39.309Z,98062.75
2022-11-20T15:41:50.836Z,98053.94
2022-11-20T15:46:16.481Z,98054.63
2022-11-20T15:50:35.107Z,98050.88
2022-11-20T15:54:46.670Z,98047.34
2022-11-20T15:58:58.203Z,98054.00
2022-11-20T16:03:13.789Z,98040.06
2022-11-20T16:07:25.321Z,98051.13
2022-11-20T16:11:37.691Z,98043.66
2022-11-20T16:15:57.394Z,98036.69
2022-11-20T16:20:15.064Z,98033.63
2022-11-20T16:24:26.598Z,98042.72
2022-11-20T16:28:38.154Z,98040.09
2022-11-20T16:32:49.738Z,98031.00
2022-11-20T16:37:01.268Z,98023.22
2022-11-20T16:41:15.633Z,98020.78
2022-11-20T16:45:32.635Z,98013.78
2022-11-20T16:49:45.324Z,98006.66
2022-11-20T16:53:57.463Z,98015.13
2022-11-20T16:58:09.358Z,98027.09
2022-11-20T17:02:20.870Z,98012.03
2022-11-20T17:06:37.722Z,98019.63
2022-11-20T17:10:49.208Z,98025.97
2022-11-20T17:15:00.755Z,98021.25
2022-11-20T17:19:12.460Z,98010.53
2022-11-20T17:23:24.213Z,98011.16
2022-11-20T17:27:35.761Z,98009.69
2022-11-20T17:31:48.730Z,98002.41
2022-11-20T17:36:00.286Z,98002.41
2022-11-20T17:40:11.903Z,97986.84
2022-11-20T17:44:23.833Z,97993.47
2022-11-20T17:48:36.259Z,97983.59
2022-11-20T17:52:47.874Z,97979.03
2022-11-20T17:57:18.180Z,97978.88
2022-11-20T18:01:29.768Z,97972.19
2022-11-20T18:05:41.352Z,97964.22
2022-11-20T18:09:52.950Z,97966.31
2022-11-20T18:14:25.623Z,97952.84
2022-11-20T18:18:37.390Z,97948.47
2022-11-20T18:22:48.905Z,97953.97
2022-11-20T18:27:00.556Z,97951.25
2022-11-20T18:31:13.137Z,97955.94
2022-11-20T18:35:26.762Z,97950.44
2022-11-20T18:39:38.309Z,97933.09
2022-11-20T18:44:08.431Z,97933.72
2022-11-20T18:48:19.995Z,97954.81
2022-11-20T18:52:35.150Z,97947.53
2022-11-20T18:56:47.364Z,97948.16
2022-11-20T19:01:07.188Z,97960.97
2022-11-20T19:05:18.928Z,97941.22
2022-11-20T19:09:30.915Z,97943.19
2022-11-20T19:13:42.445Z,97923.88
2022-11-20T19:17:54.038Z,97919.38
2022-11-20T19:22:05.600Z,97924.25
2022-11-20T19:26:18.465Z,97931.34
2022-11-20T19:30:30.054Z,97933.13
2022-11-20T19:34:41.638Z,97935.44
2022-11-20T19:38:54.165Z,97945.47
2022-11-20T19:43:05.746Z,97950.97
2022-11-20T19:47:17.296Z,97968.63
2022-11-20T19:51:32.025Z,97975.13
2022-11-20T19:55:54.283Z,97974.16
2022-11-20T20:00:06.389Z,97970.63
2022-11-20T20:04:18.573Z,97971.44
2022-11-20T20:08:30.651Z,97973.53
2022-11-20T20:12:42.153Z,97980.03
2022-11-20T20:16:53.637Z,97971.13
2022-11-20T20:21:06.969Z,97982.63
2022-11-20T20:25:18.544Z,97982.47
2022-11-20T20:29:30.066Z,97991.88
2022-11-20T20:33:42.445Z,98000.44
2022-11-20T20:37:54.034Z,97992.22
2022-11-20T20:42:05.662Z,97990.56
2022-11-20T21:11:01.423Z,98004.50
2022-11-20T21:15:15.770Z,98005.31
2022-11-20T21:19:27.801Z,97999.50
2022-11-20T21:23:39.993Z,98000.47
2022-11-20T21:27:51.602Z,97996.41
2022-11-20T21:32:03.219Z,97989.75
2022-11-20T21:36:17.465Z,97983.63
2022-11-20T21:40:29.145Z,97983.59
2022-11-20T21:44:46.691Z,97991.72
2022-11-20T21:48:58.803Z,97979.88
2022-11-20T21:53:10.371Z,97982.50
2022-11-20T21:57:21.923Z,97976.16
2022-11-20T22:01:33.590Z,97978.59
2022-11-20T22:05:54.334Z,97965.44
2022-11-20T22:10:06.276Z,97968.06
2022-11-20T22:14:20.957Z,97962.06
2022-11-20T22:18:32.898Z,97968.72
2022-11-20T22:22:44.547Z,97971.31
2022-11-20T22:26:56.118Z,97978.91
